createdAt,value
2023-07-18T00:01:15.580Z,50.70
2023-07-18T00:03:46.775Z,50.27
2023-07-18T00:06:20.937Z,50.11
2023-07-18T00:08:49.529Z,49.86
2023-07-18T00:11:25.310Z,49.59
2023-07-18T00:14:18.327Z,49.37
2023-07-18T00:16:53.089Z,49.51
2023-07-18T00:19:25.211Z,49.46
2023-07-18T00:21:53.697Z,49.41
2023-07-18T00:24:22.487Z,49.55
2023-07-18T00:27:05.362Z,49.59
2023-07-18T00:29:34.151Z,49.71
2023-07-18T00:32:05.768Z,49.66
2023-07-18T00:34:34.625Z,49.82
2023-07-18T00:37:04.181Z,49.91
2023-07-18T00:39:33.127Z,50.04
2023-07-18T00:42:02.018Z,50.13
2023-07-18T00:44:33.777Z,50.24
2023-07-18T00:47:02.872Z,50.64
2023-07-18T00:49:32.079Z,50.42
2023-07-18T00:52:02.495Z,50.53
2023-07-18T00:54:37.525Z,50.22
2023-07-18T00:57:08.728Z,50.30
2023-07-18T00:59:41.968Z,50.64
2023-07-18T01:02:20.610Z,51.66
2023-07-18T01:04:49.473Z,51.52
2023-07-18T01:07:22.827Z,51.55
2023-07-18T01:09:54.741Z,51.67
2023-07-18T01:12:23.409Z,52.53
2023-07-18T01:14:53.335Z,52.15
2023-07-18T01:17:24.616Z,52.25
2023-07-18T01:19:53.668Z,52.21
2023-07-18T01:22:25.338Z,51.97
2023-07-18T01:24:54.416Z,51.78
2023-07-18T01:27:38.368Z,51.65
2023-07-18T01:30:20.597Z,51.54
2023-07-18T01:32:50.334Z,51.30
2023-07-18T01:35:30.781Z,51.35
2023-07-18T01:38:12.277Z,51.94
2023-07-18T01:40:45.718Z,52.20
2023-07-18T01:43:14.199Z,52.82
2023-07-18T01:45:43.017Z,52.64
2023-07-18T01:48:12.004Z,52.95
2023-07-18T01:50:42.905Z,53.11
2023-07-18T01:53:16.416Z,53.63
2023-07-18T01:56:20.487Z,53.54
2023-07-18T01:58:52.488Z,54.04
2023-07-18T02:01:24.436Z,54.38
2023-07-18T02:03:55.495Z,55.35
2023-07-18T02:06:42.101Z,55.40
2023-07-18T02:09:17.891Z,55.68
2023-07-18T02:11:55.955Z,55.96
2023-07-18T02:14:30.477Z,55.68
2023-07-18T02:17:06.958Z,55.92
2023-07-18T02:19:39.532Z,56.66
2023-07-18T02:22:30.957Z,57.34
2023-07-18T02:25:27.905Z,56.99
2023-07-18T02:27:59.902Z,57.47
2023-07-18T02:31:05.461Z,59.10
2023-07-18T02:33:36.772Z,57.76
2023-07-18T02:36:13.118Z,59.31
2023-07-18T02:38:41.821Z,60.04
2023-07-18T02:41:16.341Z,60.45
2023-07-18T02:44:08.819Z,59.63
2023-07-18T02:46:46.087Z,59.40
2023-07-18T02:49:15.250Z,61.02
2023-07-18T02:52:26.597Z,61.44
2023-07-18T02:55:05.569Z,60.54
2023-07-18T02:57:39.588Z,60.19
2023-07-18T03:00:27.431Z,59.90
2023-07-18T03:02:58.722Z,60.15
2023-07-18T03:05:51.952Z,60.32
2023-07-18T03:08:20.988Z,61.08
2023-07-18T03:11:06.215Z,60.57
2023-07-18T03:13:45.106Z,61.25
2023-07-18T03:16:19.076Z,60.64
2023-07-18T03:18:55.486Z,61.39
2023-07-18T03:21:32.663Z,61.16
2023-07-18T03:24:02.015Z,61.72
2023-07-18T03:26:41.925Z,61.73
2023-07-18T03:29:35.535Z,62.98
2023-07-18T03:32:11.189Z,61.50
2023-07-18T03:34:42.952Z,60.45
2023-07-18T03:37:11.994Z,59.32
2023-07-18T03:39:41.919Z,58.42
2023-07-18T03:42:19.501Z,57.78
2023-07-18T03:45:22.986Z,58.52
2023-07-18T03:48:25.216Z,59.68
2023-07-18T03:51:06.926Z,59.34
2023-07-18T03:54:04.108Z,59.29
2023-07-18T03:56:35.799Z,60.43
2023-07-18T03:59:07.928Z,60.71
2023-07-18T04:01:39.294Z,60.43
2023-07-18T04:04:08.097Z,61.71
2023-07-18T04:06:39.892Z,60.89
2023-07-18T04:09:08.611Z,61.16
2023-07-18T04:11:47.487Z,59.89
2023-07-18T04:14:16.132Z,59.40
2023-07-18T04:16:44.727Z,59.58
2023-07-18T04:19:16.262Z,58.63
2023-07-18T04:21:44.840Z,57.63
2023-07-18T04:24:13.319Z,57.97
2023-07-18T04:26:41.712Z,58.39
2023-07-18T04:29:10.279Z,58.49
2023-07-18T04:31:38.564Z,58.43
2023-07-18T04:34:06.880Z,58.65
2023-07-18T04:36:35.415Z,56.57
2023-07-18T04:39:03.999Z,54.78
2023-07-18T04:41:41.172Z,52.57
2023-07-18T04:44:13.931Z,50.89
2023-07-18T04:46:42.860Z,49.61
2023-07-18T04:49:14.331Z,48.82
2023-07-18T04:51:45.305Z,47.25
2023-07-18T04:54:16.095Z,45.76
2023-07-18T04:56:44.569Z,44.10
2023-07-18T04:59:12.978Z,43.65
2023-07-18T05:01:44.550Z,42.22
2023-07-18T05:04:13.402Z,41.08
2023-07-18T05:06:45.318Z,40.48
2023-07-18T05:09:13.688Z,40.33
2023-07-18T05:11:44.915Z,39.33
2023-07-18T05:14:13.238Z,39.03
2023-07-18T05:16:44.159Z,37.77
2023-07-18T05:19:12.659Z,36.21
2023-07-18T05:21:40.847Z,36.71
2023-07-18T05:24:09.275Z,35.72
2023-07-18T05:26:37.700Z,35.14
2023-07-18T05:29:06.071Z,36.03
2023-07-18T05:31:34.513Z,36.58
2023-07-18T05:34:02.908Z,36.05
2023-07-18T05:36:31.104Z,35.13
2023-07-18T05:38:59.506Z,34.53
2023-07-18T05:41:27.833Z,33.90
2023-07-18T05:43:56.131Z,34.16
2023-07-18T05:46:24.432Z,34.40
2023-07-18T05:48:52.889Z,33.36
2023-07-18T05:51:21.945Z,32.35
2023-07-18T05:53:50.586Z,32.89
2023-07-18T05:56:19.256Z,31.41
2023-07-18T05:58:47.530Z,31.33
2023-07-18T06:01:16.404Z,31.61
2023-07-18T06:03:44.780Z,30.81
2023-07-18T06:06:13.088Z,30.50
2023-07-18T06:08:44.406Z,30.43
2023-07-18T06:11:12.672Z,29.86
2023-07-18T06:13:42.651Z,29.66
2023-07-18T06:16:13.284Z,29.67
2023-07-18T06:18:42.970Z,30.40
2023-07-18T06:21:11.501Z,30.62
2023-07-18T06:23:40.089Z,29.66
2023-07-18T06:26:08.708Z,29.53
2023-07-18T06:28:37.182Z,29.81
2023-07-18T06:31:05.579Z,30.59
2023-07-18T06:33:47.230Z,31.69
2023-07-18T06:36:17.300Z,31.52
2023-07-18T06:38:48.834Z,31.89
2023-07-18T06:41:18.059Z,32.06
2023-07-18T06:43:49.785Z,32.10
2023-07-18T06:46:18.273Z,32.31
2023-07-18T06:48:46.550Z,33.17
2023-07-18T06:51:16.041Z,33.04
2023-07-18T06:53:44.630Z,33.08
2023-07-18T06:56:13.205Z,32.92
2023-07-18T06:58:42.926Z,33.25
2023-07-18T07:01:23.924Z,34.52
2023-07-18T07:03:52.980Z,35.32
2023-07-18T07:06:21.554Z,35.61
2023-07-18T07:08:49.771Z,35.68
2023-07-18T07:11:18.460Z,36.42
2023-07-18T07:13:47.324Z,35.73
2023-07-18T07:16:15.821Z,35.52
2023-07-18T07:18:44.269Z,35.39
2023-07-18T07:21:12.636Z,35.93
2023-07-18T07:23:40.974Z,36.72
2023-07-18T07:26:12.065Z,36.62
2023-07-18T07:28:41.408Z,36.37
2023-07-18T07:31:10.426Z,36.78
2023-07-18T07:33:38.743Z,36.52
2023-07-18T07:36:07.222Z,37.03
2023-07-18T07:38:35.834Z,36.87
2023-07-18T07:41:06.232Z,36.73
2023-07-18T07:43:34.832Z,37.52
2023-07-18T07:46:03.749Z,37.66
2023-07-18T07:48:32.218Z,37.16
2023-07-18T07:51:07.194Z,37.27
2023-07-18T07:53:35.628Z,37.80
2023-07-18T07:56:04.495Z,38.33
2023-07-18T07:58:32.788Z,37.46
2023-07-18T08:01:02.628Z,37.47
2023-07-18T08:03:30.973Z,38.96
2023-07-18T08:06:00.203Z,38.50
2023-07-18T08:08:28.580Z,38.30
2023-07-18T08:10:57.213Z,38.43
2023-07-18T08:13:26.347Z,38.65
2023-07-18T08:15:55.324Z,38.87
2023-07-18T08:18:26.442Z,38.52
2023-07-18T08:20:55.125Z,38.41
2023-07-18T08:23:23.909Z,39.54
2023-07-18T08:25:52.288Z,38.41
2023-07-18T08:28:20.988Z,38.66
2023-07-18T08:30:49.367Z,39.23
2023-07-18T08:33:20.715Z,39.37
2023-07-18T08:35:50.667Z,39.07
2023-07-18T08:38:19.609Z,39.39
2023-07-18T08:40:49.625Z,41.24
2023-07-18T08:43:19.600Z,40.70
2023-07-18T08:45:49.113Z,40.64
2023-07-18T08:48:17.887Z,40.43
2023-07-18T08:50:46.620Z,41.34
2023-07-18T08:53:20.657Z,41.42
2023-07-18T08:55:49.760Z,41.72
2023-07-18T08:58:21.509Z,41.91
2023-07-18T09:00:53.234Z,41.69
2023-07-18T09:03:21.744Z,41.57
2023-07-18T09:05:51.235Z,42.40
2023-07-18T09:08:23.294Z,42.06
2023-07-18T09:11:22.183Z,42.29
2023-07-18T09:13:51.521Z,41.31
2023-07-18T09:16:23.698Z,41.99
2023-07-18T09:18:54.586Z,41.68
2023-07-18T09:21:24.747Z,40.11
2023-07-18T09:23:54.241Z,39.82
2023-07-18T09:26:23.320Z,40.02
2023-07-18T09:28:52.985Z,40.13
2023-07-18T09:31:24.434Z,38.92
2023-07-18T09:33:56.079Z,38.53
2023-07-18T09:36:26.978Z,38.77
2023-07-18T09:39:02.820Z,38.63
2023-07-18T09:41:33.243Z,38.88
2023-07-18T09:44:27.489Z,38.19
2023-07-18T09:46:52.781Z,38.62
2023-07-18T09:49:24.850Z,38.76
2023-07-18T09:52:17.576Z,38.41
2023-07-18T09:54:46.430Z,38.77
2023-07-18T09:57:17.721Z,38.22
2023-07-18T10:00:02.228Z,38.76
2023-07-18T10:02:40.273Z,38.69
2023-07-18T10:05:15.501Z,38.40
2023-07-18T10:07:44.978Z,37.73
2023-07-18T10:10:14.337Z,38.03
2023-07-18T10:12:55.529Z,37.36
2023-07-18T10:15:26.604Z,37.38
2023-07-18T10:17:55.476Z,37.81
2023-07-18T10:20:38.193Z,37.15
2023-07-18T10:23:07.787Z,37.27
2023-07-18T10:25:36.217Z,37.07
2023-07-18T10:28:08.438Z,37.28
2023-07-18T10:30:43.866Z,37.51
2023-07-18T10:33:18.904Z,37.58
2023-07-18T10:35:49.670Z,37.40
2023-07-18T10:38:27.149Z,37.89
2023-07-18T10:40:55.837Z,37.59
2023-07-18T10:43:24.097Z,37.47
2023-07-18T10:45:53.808Z,37.00
2023-07-18T10:48:22.273Z,36.47
2023-07-18T10:50:51.210Z,37.36
2023-07-18T10:53:29.553Z,37.12
2023-07-18T10:55:59.226Z,37.49
2023-07-18T10:58:27.810Z,37.73
2023-07-18T11:01:05.412Z,38.19
2023-07-18T11:03:40.563Z,37.91
2023-07-18T11:06:09.941Z,38.05
2023-07-18T11:08:41.493Z,38.31
2023-07-18T11:11:10.487Z,38.57
2023-07-18T11:13:40.726Z,38.30
2023-07-18T11:16:18.317Z,38.87
2023-07-18T11:18:49.780Z,39.03
2023-07-18T11:21:20.570Z,38.38
2023-07-18T11:23:49.468Z,37.69
2023-07-18T11:26:19.814Z,38.07
2023-07-18T11:28:53.125Z,38.53
2023-07-18T11:34:06.600Z,38.34
2023-07-18T11:36:48.489Z,38.60
2023-07-18T11:39:23.578Z,37.56
2023-07-18T11:41:54.136Z,37.38
2023-07-18T11:44:26.965Z,37.47
2023-07-18T11:46:56.479Z,37.61
2023-07-18T11:49:37.779Z,37.66
2023-07-18T11:52:09.504Z,37.59
2023-07-18T11:54:38.325Z,37.46
2023-07-18T11:57:11.317Z,37.65
2023-07-18T11:59:43.191Z,37.91
2023-07-18T12:02:11.864Z,37.64
2023-07-18T12:04:43.103Z,37.46
2023-07-18T12:07:11.487Z,37.22
2023-07-18T12:09:40.167Z,37.26
2023-07-18T12:12:08.842Z,36.80
2023-07-18T12:14:37.309Z,36.72
2023-07-18T12:17:06.374Z,36.98
2023-07-18T12:19:55.049Z,36.74
2023-07-18T12:22:23.424Z,36.64
2023-07-18T12:24:52.147Z,36.49
2023-07-18T12:27:20.543Z,36.67
2023-07-18T12:29:49.302Z,37.14
2023-07-18T12:32:17.718Z,36.55
2023-07-18T12:34:49.459Z,36.72
2023-07-18T12:37:18.210Z,36.99
2023-07-18T12:39:46.850Z,36.83
2023-07-18T12:42:15.476Z,36.88
2023-07-18T12:44:48.565Z,37.16
2023-07-18T12:47:18.325Z,37.18
2023-07-18T12:52:18.594Z,37.27
2023-07-18T12:54:49.237Z,37.01
2023-07-18T12:57:17.579Z,37.22
2023-07-18T12:59:46.047Z,37.21
2023-07-18T13:02:17.299Z,37.64
2023-07-18T13:04:49.123Z,37.97
2023-07-18T13:07:17.917Z,37.51
2023-07-18T13:09:46.710Z,37.77
2023-07-18T13:12:15.173Z,37.91
2023-07-18T13:14:46.016Z,37.86
2023-07-18T13:17:18.118Z,37.75
2023-07-18T13:19:49.017Z,37.76
2023-07-18T13:22:21.525Z,38.30
2023-07-18T13:24:50.019Z,38.32
2023-07-18T13:27:18.760Z,38.24
2023-07-18T13:29:47.545Z,38.17
2023-07-18T13:32:18.596Z,38.00
2023-07-18T13:34:47.170Z,37.72
2023-07-18T13:37:15.688Z,36.63
2023-07-18T13:39:44.129Z,36.75
2023-07-18T13:42:22.401Z,37.23
2023-07-18T13:44:55.017Z,37.69
2023-07-18T13:47:23.431Z,37.55
2023-07-18T13:49:53.213Z,37.12
2023-07-18T13:52:23.349Z,36.98
2023-07-18T13:55:01.078Z,36.87
2023-07-18T13:57:30.807Z,36.90
2023-07-18T14:00:00.893Z,37.36
2023-07-18T14:02:29.649Z,37.66
2023-07-18T14:04:58.747Z,37.67
2023-07-18T14:07:27.422Z,37.96
2023-07-18T14:10:04.612Z,38.23
2023-07-18T14:12:33.394Z,38.40
2023-07-18T14:15:06.155Z,38.66
2023-07-18T14:17:37.549Z,38.38
2023-07-18T14:20:34.076Z,38.41
2023-07-18T14:23:04.139Z,38.65
2023-07-18T14:25:33.094Z,38.57
2023-07-18T14:28:10.834Z,38.13
2023-07-18T14:30:46.731Z,37.73
2023-07-18T14:33:19.177Z,37.78
2023-07-18T14:35:50.757Z,38.13
2023-07-18T14:38:19.495Z,38.52
2023-07-18T14:40:49.400Z,38.78
2023-07-18T14:43:29.228Z,39.00
2023-07-18T14:45:58.515Z,39.12
2023-07-18T14:48:27.249Z,39.06
2023-07-18T14:50:56.320Z,38.51
2023-07-18T14:53:25.374Z,38.28
2023-07-18T14:55:54.178Z,38.55
2023-07-18T14:58:34.017Z,38.59
2023-07-18T15:01:29.471Z,38.87
2023-07-18T15:04:18.424Z,38.85
2023-07-18T15:06:47.034Z,38.69
2023-07-18T15:09:18.959Z,38.44
2023-07-18T15:11:51.012Z,38.45
2023-07-18T15:14:19.615Z,38.19
2023-07-18T15:16:58.393Z,38.11
2023-07-18T15:19:26.977Z,38.02
2023-07-18T15:21:57.884Z,37.99
2023-07-18T15:24:26.651Z,38.12
2023-07-18T15:26:55.500Z,37.87
2023-07-18T15:29:24.178Z,37.68
2023-07-18T15:31:52.610Z,37.80
2023-07-18T15:34:21.141Z,37.94
2023-07-18T15:36:49.739Z,37.86
2023-07-18T15:39:18.407Z,37.59
2023-07-18T15:41:49.141Z,37.97
2023-07-18T15:44:17.834Z,38.11
2023-07-18T15:46:46.826Z,37.68
2023-07-18T15:49:15.354Z,37.72
2023-07-18T15:51:43.994Z,38.09
2023-07-18T15:54:12.529Z,37.29
2023-07-18T15:56:44.015Z,37.19
2023-07-18T15:59:15.307Z,37.01
2023-07-18T16:01:51.846Z,37.24
2023-07-18T16:04:23.161Z,37.58
2023-07-18T16:07:00.803Z,37.51
2023-07-18T16:09:32.099Z,37.89
2023-07-18T16:12:02.954Z,37.89
2023-07-18T16:14:32.452Z,38.15
2023-07-18T16:17:02.169Z,38.18
2023-07-18T16:19:30.696Z,38.62
2023-07-18T16:22:01.468Z,38.42
2023-07-18T16:24:29.975Z,39.15
2023-07-18T16:27:03.660Z,39.01
2023-07-18T16:29:32.255Z,38.65
2023-07-18T16:32:01.108Z,38.99
2023-07-18T16:34:29.938Z,39.20
2023-07-18T16:37:00.963Z,39.27
2023-07-18T16:39:33.468Z,39.23
2023-07-18T16:42:21.831Z,39.50
2023-07-18T16:44:52.730Z,39.99
2023-07-18T16:47:32.780Z,40.20
2023-07-18T16:50:20.547Z,40.76
2023-07-18T16:52:51.928Z,41.20
2023-07-18T16:55:20.858Z,41.63
2023-07-18T16:57:49.438Z,41.44
2023-07-18T17:00:38.298Z,41.53
2023-07-18T17:03:07.165Z,41.55
2023-07-18T17:05:49.497Z,41.70
2023-07-18T17:08:20.373Z,41.57
2023-07-18T17:10:52.159Z,41.46
2023-07-18T17:13:22.817Z,41.62
2023-07-18T17:15:52.425Z,41.89
2023-07-18T17:18:24.179Z,41.75
2023-07-18T17:20:53.376Z,42.29
2023-07-18T17:23:22.777Z,42.33
2023-07-18T17:25:55.547Z,42.25
2023-07-18T17:28:30.489Z,42.58
2023-07-18T17:31:08.016Z,42.51
2023-07-18T17:33:39.636Z,42.92
2023-07-18T17:36:28.679Z,42.99
2023-07-18T17:39:00.472Z,43.06
2023-07-18T17:41:32.731Z,43.25
2023-07-18T17:44:02.709Z,43.54
2023-07-18T17:46:31.313Z,43.42
2023-07-18T17:49:00.047Z,44.04
2023-07-18T17:51:30.124Z,43.99
2023-07-18T17:54:33.096Z,44.27
2023-07-18T17:57:26.212Z,44.58
2023-07-18T18:00:24.220Z,44.65
2023-07-18T18:02:53.126Z,44.90
2023-07-18T18:05:46.848Z,45.26
2023-07-18T18:08:26.389Z,46.05
2023-07-18T18:11:22.568Z,46.20
2023-07-18T18:14:04.392Z,46.40
2023-07-18T18:17:02.180Z,47.13
2023-07-18T18:19:33.505Z,47.09
2023-07-18T18:22:02.682Z,47.16
2023-07-18T18:24:46.339Z,47.57
2023-07-18T18:27:22.689Z,48.05
2023-07-18T18:30:32.205Z,48.23
2023-07-18T18:33:30.177Z,48.81
2023-07-18T18:36:16.503Z,48.99
2023-07-18T18:38:54.814Z,50.39
2023-07-18T18:41:34.845Z,50.72
2023-07-18T18:44:31.365Z,50.93
2023-07-18T18:47:02.369Z,50.64
2023-07-18T18:49:33.801Z,51.46
2023-07-18T18:52:02.481Z,51.70
2023-07-18T18:54:58.713Z,52.26
2023-07-18T18:57:37.368Z,52.58
2023-07-18T19:00:14.008Z,53.44
2023-07-18T19:02:45.147Z,53.38
2023-07-18T19:05:13.758Z,53.57
2023-07-18T19:07:42.305Z,54.25
2023-07-18T19:10:21.135Z,54.18
2023-07-18T19:13:27.501Z,54.64
2023-07-18T19:15:58.235Z,55.29
2023-07-18T19:18:26.983Z,56.67
2023-07-18T19:21:04.712Z,58.23
2023-07-18T19:23:33.307Z,57.76
2023-07-18T19:26:04.296Z,57.65
2023-07-18T19:28:33.644Z,58.05
2023-07-18T19:31:04.986Z,58.13
2023-07-18T19:33:36.694Z,57.82
2023-07-18T19:36:14.481Z,58.76
2023-07-18T19:38:57.944Z,59.28
2023-07-18T19:41:27.257Z,59.06
2023-07-18T19:43:59.037Z,60.67
2023-07-18T19:46:36.572Z,60.72
2023-07-18T19:49:17.616Z,60.27
2023-07-18T19:51:48.850Z,61.28
2023-07-18T19:54:17.939Z,61.63
2023-07-18T19:56:46.735Z,60.83
2023-07-18T19:59:36.115Z,60.80
2023-07-18T20:02:04.972Z,61.23
2023-07-18T20:04:35.978Z,60.88
2023-07-18T20:07:24.912Z,61.21
2023-07-18T20:09:55.592Z,60.97
2023-07-18T20:12:35.681Z,61.91
2023-07-18T20:15:07.845Z,61.40
2023-07-18T20:17:51.440Z,62.09
2023-07-18T20:20:36.874Z,61.96
2023-07-18T20:23:09.170Z,61.37
2023-07-18T20:25:40.907Z,61.82
2023-07-18T20:28:10.201Z,62.88
2023-07-18T20:30:39.071Z,62.95
2023-07-18T20:33:13.392Z,63.83
2023-07-18T20:35:41.946Z,63.56
2023-07-18T20:38:10.666Z,63.73
2023-07-18T20:40:39.568Z,64.70
2023-07-18T20:43:17.308Z,64.34
2023-07-18T20:46:14.926Z,64.95
2023-07-18T20:48:48.683Z,65.73
2023-07-18T20:51:29.404Z,65.98
2023-07-18T20:54:00.323Z,65.66
2023-07-18T20:56:35.073Z,65.04
2023-07-18T20:59:06.554Z,65.11
2023-07-18T21:01:37.639Z,66.16
2023-07-18T21:04:06.219Z,65.80
2023-07-18T21:06:44.257Z,66.74
2023-07-18T21:09:42.947Z,65.67
2023-07-18T21:12:14.777Z,66.81
2023-07-18T21:14:46.948Z,65.60
2023-07-18T21:17:15.516Z,65.62
2023-07-18T21:19:47.076Z,65.46
2023-07-18T21:22:27.390Z,64.94
2023-07-18T21:25:07.276Z,64.30
2023-07-18T21:27:55.953Z,64.42
2023-07-18T21:30:24.524Z,66.32
2023-07-18T21:32:53.646Z,66.07
2023-07-18T21:35:25.333Z,66.21
2023-07-18T21:38:17.470Z,65.54
2023-07-18T21:40:49.056Z,67.22
2023-07-18T21:43:18.416Z,66.07
2023-07-18T21:45:47.303Z,66.30
2023-07-18T21:48:15.925Z,66.27
2023-07-18T21:50:44.469Z,66.73
2023-07-18T21:53:14.043Z,66.64
2023-07-18T21:55:47.946Z,66.27
2023-07-18T21:58:26.535Z,66.98
2023-07-18T22:01:18.812Z,66.79
2023-07-18T22:03:47.877Z,67.18
2023-07-18T22:06:16.570Z,67.37
2023-07-18T22:08:45.254Z,66.94
2023-07-18T22:11:14.669Z,67.36
2023-07-18T22:13:43.570Z,67.39
2023-07-18T22:16:17.648Z,67.27
2023-07-18T22:18:57.941Z,67.19
2023-07-18T22:21:45.547Z,67.04
2023-07-18T22:24:16.478Z,67.12
2023-07-18T22:26:45.580Z,67.04
2023-07-18T22:29:16.816Z,66.67
2023-07-18T22:31:50.932Z,66.46
2023-07-18T22:34:19.717Z,66.81
2023-07-18T22:36:48.553Z,66.74
2023-07-18T22:39:37.330Z,66.37
2023-07-18T22:42:17.584Z,66.45
2023-07-18T22:44:49.999Z,66.49
2023-07-18T22:47:21.377Z,66.54
2023-07-18T22:49:55.571Z,66.31
2023-07-18T22:52:44.310Z,66.85
2023-07-18T22:55:13.199Z,66.41
2023-07-18T22:57:49.773Z,66.60
2023-07-18T23:00:18.867Z,66.72
2023-07-18T23:02:53.202Z,67.00
2023-07-18T23:05:24.426Z,66.98
2023-07-18T23:08:00.050Z,66.97
2023-07-18T23:10:28.884Z,67.05
2023-07-18T23:13:00.902Z,67.20
2023-07-18T23:15:30.359Z,67.43
2023-07-18T23:17:59.161Z,67.40
2023-07-18T23:20:37.944Z,67.85
2023-07-18T23:23:06.682Z,68.28
2023-07-18T23:25:35.518Z,68.46
2023-07-18T23:28:05.985Z,68.45
2023-07-18T23:30:37.430Z,68.54
2023-07-18T23:33:08.976Z,68.87
2023-07-18T23:35:38.141Z,69.22
2023-07-18T23:38:15.505Z,69.47
2023-07-18T23:40:45.662Z,69.20
2023-07-18T23:43:14.235Z,69.03
2023-07-18T23:45:42.818Z,68.92
2023-07-18T23:48:14.476Z,69.34
2023-07-18T23:50:43.054Z,70.59
2023-07-18T23:53:11.636Z,70.17
2023-07-18T23:55:45.594Z,69.52
2023-07-18T23:58:23.709Z,69.20
